Time;durP1;ratioP1;P1;durP2;ratioP2;P2;SDS_P1;SDS_P2;PMS_P1;PMS_P2;Temp;Humidity;BMP_temperature;BMP_pressure;BME280_temperature;BME280_humidity;BME280_pressure;Samples;Min_cycle;Max_cycle;Signal;HPM_P1;HPM_P2
2021/03/24 00:01:22;;;;;;;4.30;4.03;;;18.30;61.20;;;;;;5052302;28;20505;-36
2021/03/24 00:03:48;;;;;;;3.88;3.63;;;18.30;61.20;;;;;;5051481;28;20037;-36
2021/03/24 00:06:14;;;;;;;3.60;3.40;;;18.30;61.20;;;;;;5049590;28;20040;-35
2021/03/24 00:08:40;;;;;;;3.83;3.63;;;18.30;61.20;;;;;;5038042;28;20053;-35
2021/03/24 00:11:06;;;;;;;4.00;3.70;;;18.30;61.30;;;;;;5049336;28;20025;-36
2021/03/24 00:13:32;;;;;;;3.70;3.50;;;18.20;61.10;;;;;;5046520;28;20116;-35
2021/03/24 00:15:58;;;;;;;3.78;3.58;;;18.20;61.10;;;;;;5039555;28;20113;-35
2021/03/24 00:18:23;;;;;;;4.82;3.83;;;18.20;61.10;;;;;;5035124;28;20163;-34
2021/03/24 00:20:49;;;;;;;3.85;3.65;;;18.20;61.00;;;;;;5038805;28;20505;-35
2021/03/24 00:23:14;;;;;;;3.58;3.38;;;18.20;61.00;;;;;;5049325;28;20045;-35
2021/03/24 00:25:40;;;;;;;3.67;3.47;;;18.20;61.00;;;;;;5045870;28;20056;-34
2021/03/24 00:28:06;;;;;;;3.90;3.65;;;18.20;61.00;;;;;;5040135;28;20032;-35
2021/03/24 00:30:34;;;;;;;3.80;3.60;;;18.20;61.00;;;;;;5051145;28;20147;-36
2021/03/24 00:33:00;;;;;;;3.55;3.35;;;18.20;61.10;;;;;;5047624;28;20499;-37
2021/03/24 00:35:26;;;;;;;4.05;3.85;;;18.20;61.90;;;;;;5050492;28;20068;-34
2021/03/24 00:37:51;;;;;;;3.83;3.63;;;18.20;61.10;;;;;;5051657;28;20032;-37
2021/03/24 00:40:22;;;;;;;4.07;3.83;;;18.20;61.10;;;;;;5050920;28;20032;-34
2021/03/24 00:42:48;;;;;;;3.70;3.50;;;18.20;61.00;;;;;;5051739;28;20037;-35
2021/03/24 00:45:14;;;;;;;4.63;4.20;;;18.10;61.00;;;;;;5048787;28;20058;-36
2021/03/24 00:47:41;;;;;;;3.67;3.38;;;18.10;61.10;;;;;;5051915;28;20035;-36
2021/03/24 00:50:08;;;;;;;3.85;3.55;;;18.10;61.10;;;;;;5049397;28;20028;-35
2021/03/24 00:52:33;;;;;;;4.07;3.85;;;18.10;61.00;;;;;;5044904;28;20021;-36
2021/03/24 00:54:59;;;;;;;4.22;3.92;;;18.10;61.10;;;;;;5050165;28;20025;-34
2021/03/24 00:57:24;;;;;;;4.13;3.83;;;18.10;61.00;;;;;;5051172;28;20021;-39
2021/03/24 00:59:50;;;;;;;3.58;3.38;;;18.10;61.10;;;;;;5037589;28;20026;-33
2021/03/24 01:02:15;;;;;;;4.22;4.03;;;18.10;61.10;;;;;;5048407;28;20098;-35
2021/03/24 01:04:42;;;;;;;3.78;3.50;;;18.10;61.10;;;;;;5050470;28;20522;-29
2021/03/24 01:07:11;;;;;;;4.32;3.92;;;18.10;61.10;;;;;;5050448;28;20035;-33
2021/03/24 01:09:37;;;;;;;3.90;3.60;;;18.10;61.10;;;;;;5051365;28;20033;-37
2021/03/24 01:12:03;;;;;;;3.90;3.70;;;18.10;61.00;;;;;;5045734;28;20048;-34
2021/03/24 01:14:28;;;;;;;4.03;3.75;;;18.10;60.90;;;;;;5049096;28;20498;-34
2021/03/24 01:16:54;;;;;;;4.03;3.80;;;18.10;60.90;;;;;;5043021;28;20099;-33
2021/03/24 01:19:19;;;;;;;3.92;3.72;;;18.10;61.00;;;;;;5050583;28;20367;-34
2021/03/24 01:21:45;;;;;;;4.43;4.13;;;18.10;61.00;;;;;;5049364;28;20025;-32
2021/03/24 01:24:11;;;;;;;4.00;3.80;;;18.10;61.10;;;;;;5050165;28;20526;-35
2021/03/24 01:26:36;;;;;;;4.20;4.00;;;18.00;61.00;;;;;;5050152;28;20021;-33
2021/03/24 01:29:02;;;;;;;3.75;3.55;;;18.00;61.10;;;;;;5050371;28;20174;-34
2021/03/24 01:31:28;;;;;;;4.43;4.05;;;18.00;60.90;;;;;;5050558;28;20560;-35
2021/03/24 01:33:54;;;;;;;3.60;3.40;;;18.10;61.00;;;;;;5049653;28;20029;-32
2021/03/24 01:36:19;;;;;;;4.22;3.90;;;18.10;61.00;;;;;;5049984;28;20467;-36
2021/03/24 01:38:45;;;;;;;3.92;3.72;;;18.00;60.90;;;;;;5049049;28;20029;-40
2021/03/24 01:41:11;;;;;;;4.00;3.80;;;18.10;61.00;;;;;;5044174;28;20029;-35
2021/03/24 01:43:36;;;;;;;4.00;3.80;;;18.00;61.70;;;;;;5049249;28;20073;-36
2021/03/24 01:46:17;;;;;;;3.97;3.78;;;18.00;60.90;;;;;;5049626;28;20096;-33
2021/03/24 01:48:56;;;;;;;4.15;3.67;;;18.00;60.90;;;;;;5035374;28;20029;-35
2021/03/24 01:51:35;;;;;;;3.70;3.50;;;18.00;60.90;;;;;;5050240;28;20036;-36
2021/03/24 01:54:00;;;;;;;4.10;3.80;;;18.00;60.80;;;;;;5048230;28;20029;-33
2021/03/24 01:56:26;;;;;;;3.85;3.65;;;18.00;60.80;;;;;;5048540;28;20035;-35
2021/03/24 01:58:52;;;;;;;3.80;3.50;;;18.00;60.90;;;;;;5031722;28;20035;-34
2021/03/24 02:01:19;;;;;;;3.83;3.63;;;18.00;60.90;;;;;;5049775;28;20029;-34
2021/03/24 02:03:44;;;;;;;3.70;3.50;;;18.00;60.80;;;;;;5049625;28;20044;-34
2021/03/24 02:06:38;;;;;;;3.60;3.40;;;18.00;60.80;;;;;;5049781;28;20457;-34
2021/03/24 02:09:12;;;;;;;3.80;3.50;;;18.00;61.50;;;;;;5045942;28;20061;-35
2021/03/24 02:12:04;;;;;;;3.40;3.20;;;18.00;60.60;;;;;;5047779;28;20498;-37
2021/03/24 02:14:48;;;;;;;3.92;3.63;;;18.00;60.70;;;;;;5048624;28;20435;-36
2021/03/24 02:17:14;;;;;;;3.93;3.67;;;18.00;60.70;;;;;;5048536;28;20143;-36
2021/03/24 02:20:05;;;;;;;4.28;3.97;;;17.90;60.70;;;;;;5043479;28;20124;-34
2021/03/24 02:22:36;;;;;;;4.03;3.72;;;17.90;60.70;;;;;;5042681;28;20025;-34
2021/03/24 02:25:28;;;;;;;3.83;3.63;;;18.00;60.80;;;;;;5045306;28;20544;-34
2021/03/24 02:27:55;;;;;;;3.80;3.60;;;17.90;60.70;;;;;;4956290;28;20520;-35
2021/03/24 02:30:29;;;;;;;3.97;3.78;;;17.90;60.50;;;;;;4953557;28;20042;-34
2021/03/24 02:33:07;;;;;;;3.95;3.72;;;18.00;60.60;;;;;;4954163;28;20216;-33
2021/03/24 02:35:35;;;;;;;3.58;3.38;;;18.00;60.50;;;;;;4952833;29;20123;-33
2021/03/24 02:38:02;;;;;;;3.53;3.33;;;18.00;60.50;;;;;;4937285;28;20047;-32
2021/03/24 02:40:28;;;;;;;4.00;3.72;;;18.00;60.50;;;;;;4955900;28;20057;-34
2021/03/24 02:42:54;;;;;;;4.00;3.70;;;18.00;60.50;;;;;;4942363;28;20039;-39
2021/03/24 02:45:25;;;;;;;3.83;3.58;;;17.90;60.40;;;;;;4953454;28;20134;-39
2021/03/24 02:47:50;;;;;;;4.03;3.78;;;18.00;60.40;;;;;;4942931;29;20035;-36
2021/03/24 02:50:17;;;;;;;3.42;3.22;;;18.00;60.50;;;;;;4938886;28;20121;-38
2021/03/24 02:52:43;;;;;;;3.80;3.60;;;17.90;60.50;;;;;;4955588;28;20061;-35
2021/03/24 02:55:09;;;;;;;3.45;3.25;;;17.90;60.60;;;;;;4952274;28;20552;-34
2021/03/24 02:57:35;;;;;;;4.22;3.92;;;17.90;60.50;;;;;;4955652;28;20030;-34
2021/03/24 03:00:01;;;;;;;3.38;3.17;;;17.90;60.50;;;;;;4967140;28;20081;-34
2021/03/24 03:02:27;;;;;;;3.92;3.63;;;17.90;60.50;;;;;;4947614;28;20170;-33
2021/03/24 03:05:02;;;;;;;3.47;3.17;;;17.90;60.60;;;;;;5003256;28;20060;-34
2021/03/24 03:07:30;;;;;;;3.63;3.38;;;17.80;60.60;;;;;;5044524;28;20546;-33
2021/03/24 03:09:59;;;;;;;3.38;3.17;;;17.80;60.60;;;;;;5053391;28;20491;-32
2021/03/24 03:12:47;;;;;;;3.97;3.67;;;17.80;60.60;;;;;;5035245;28;20066;-36
2021/03/24 03:15:29;;;;;;;4.00;3.20;;;17.80;60.50;;;;;;5052752;28;20058;-34
2021/03/24 03:18:14;;;;;;;3.70;3.40;;;17.90;60.60;;;;;;5051301;28;20131;-36
2021/03/24 03:20:42;;;;;;;3.45;3.25;;;17.80;60.60;;;;;;5035166;28;20108;-37
2021/03/24 03:23:11;;;;;;;3.58;3.38;;;18.00;60.30;;;;;;5048635;28;20029;-34
2021/03/24 03:25:38;;;;;;;3.47;3.28;;;18.10;60.00;;;;;;5029178;28;20095;-34
2021/03/24 03:28:08;;;;;;;3.47;3.28;;;18.00;60.10;;;;;;5039630;28;20108;-36
2021/03/24 03:30:34;;;;;;;4.53;3.50;;;18.00;60.30;;;;;;5036251;28;20047;-34
2021/03/24 03:33:01;;;;;;;3.97;3.60;;;17.90;60.30;;;;;;5036105;28;20033;-36
2021/03/24 03:35:27;;;;;;;3.40;3.20;;;17.90;60.30;;;;;;5055397;28;20026;-33
2021/03/24 03:37:54;;;;;;;3.33;3.10;;;17.90;60.40;;;;;;5043982;28;20041;-35
2021/03/24 03:40:20;;;;;;;3.47;3.28;;;17.90;60.30;;;;;;5038209;28;20412;-34
2021/03/24 03:42:46;;;;;;;3.45;3.25;;;17.90;60.30;;;;;;5037263;28;20033;-34
2021/03/24 03:45:12;;;;;;;3.95;3.65;;;17.90;60.20;;;;;;5050209;28;20506;-36
2021/03/24 03:47:42;;;;;;;4.40;4.10;;;17.90;60.00;;;;;;5050425;28;20068;-33
2021/03/24 03:50:08;;;;;;;4.20;3.80;;;17.90;60.80;;;;;;5046289;28;20410;-35
2021/03/24 03:52:46;;;;;;;4.00;3.70;;;17.90;61.00;;;;;;5052602;28;20009;-35
2021/03/24 03:55:14;;;;;;;5.20;3.70;;;17.90;61.40;;;;;;5049478;28;20087;-33
2021/03/24 03:57:56;;;;;;;3.63;3.42;;;17.90;61.90;;;;;;5037601;28;20056;-33
2021/03/24 04:00:25;;;;;;;3.92;3.63;;;17.90;62.10;;;;;;5043086;28;20112;-32
2021/03/24 04:03:09;;;;;;;4.13;3.53;;;17.80;62.20;;;;;;5047322;28;20029;-33
2021/03/24 04:05:42;;;;;;;3.45;3.25;;;17.80;62.40;;;;;;5022155;28;20642;-34
2021/03/24 04:08:14;;;;;;;3.42;3.22;;;17.80;62.20;;;;;;5029008;28;20021;-35
2021/03/24 04:10:47;;;;;;;3.88;3.63;;;17.80;62.40;;;;;;5045536;28;20037;-35
2021/03/24 04:13:12;;;;;;;3.80;3.50;;;17.80;62.20;;;;;;5035739;28;20658;-34
2021/03/24 04:15:38;;;;;;;3.30;3.05;;;17.80;62.30;;;;;;5034153;28;20028;-31
2021/03/24 04:18:07;;;;;;;3.63;2.97;;;17.70;62.20;;;;;;5036463;28;20393;-35
2021/03/24 04:20:33;;;;;;;3.53;3.33;;;17.70;62.20;;;;;;5050141;28;20017;-35
2021/03/24 04:22:58;;;;;;;3.95;3.60;;;17.70;62.20;;;;;;5049594;28;20032;-37
2021/03/24 04:25:27;;;;;;;3.22;3.03;;;17.70;62.20;;;;;;5048954;28;20033;-35
2021/03/24 04:27:52;;;;;;;3.28;3.08;;;17.70;63.00;;;;;;5037112;28;20032;-34
2021/03/24 04:30:21;;;;;;;3.45;3.25;;;17.70;62.10;;;;;;5018396;28;20029;-33
2021/03/24 04:32:47;;;;;;;3.40;3.20;;;17.70;62.10;;;;;;5018784;28;20669;-34
2021/03/24 04:35:14;;;;;;;3.35;3.15;;;17.70;62.90;;;;;;5043139;28;20115;-35
2021/03/24 04:37:42;;;;;;;3.15;2.88;;;17.70;61.90;;;;;;5040248;28;20028;-34
2021/03/24 04:40:14;;;;;;;3.00;2.80;;;17.70;62.10;;;;;;5033931;28;20441;-34
2021/03/24 04:42:42;;;;;;;3.10;2.90;;;17.70;61.70;;;;;;5034772;28;20503;-35
2021/03/24 04:45:13;;;;;;;2.90;2.70;;;17.70;61.80;;;;;;5050737;28;20065;-34
2021/03/24 04:47:39;;;;;;;3.33;3.08;;;17.70;61.90;;;;;;5050473;28;20045;-35
2021/03/24 04:50:16;;;;;;;3.42;3.08;;;17.70;61.70;;;;;;5042115;28;20025;-34
2021/03/24 04:52:42;;;;;;;3.10;2.90;;;17.80;61.60;;;;;;5037943;28;20407;-34
2021/03/24 04:55:09;;;;;;;2.78;2.67;;;17.80;61.50;;;;;;5037806;28;20025;-34
2021/03/24 04:57:34;;;;;;;3.05;2.85;;;17.80;61.50;;;;;;5035408;28;20021;-34
2021/03/24 05:00:06;;;;;;;2.63;2.53;;;17.80;61.30;;;;;;5028952;28;20514;-33
2021/03/24 05:02:32;;;;;;;2.70;2.60;;;17.80;61.30;;;;;;5041424;28;20025;-35
2021/03/24 05:05:13;;;;;;;3.08;2.88;;;17.80;61.20;;;;;;5048434;28;20036;-35
2021/03/24 05:07:49;;;;;;;2.60;2.50;;;17.80;61.00;;;;;;5029459;28;20021;-34
2021/03/24 05:10:19;;;;;;;2.90;2.65;;;17.80;60.80;;;;;;5038087;28;20033;-34
2021/03/24 05:12:55;;;;;;;2.90;2.70;;;17.90;60.80;;;;;;5039733;28;20526;-34
2021/03/24 05:15:22;;;;;;;2.88;2.70;;;17.90;60.70;;;;;;5048598;28;20090;-34
2021/03/24 05:17:47;;;;;;;2.60;2.40;;;18.00;60.20;;;;;;5050669;28;20059;-34
2021/03/24 05:20:21;;;;;;;2.70;2.50;;;18.10;60.00;;;;;;5039703;28;20033;-32
2021/03/24 05:22:46;;;;;;;2.90;2.70;;;18.00;60.30;;;;;;5044120;28;20043;-33
2021/03/24 05:25:22;;;;;;;2.60;2.50;;;17.90;60.30;;;;;;5047786;28;20045;-35
2021/03/24 05:27:54;;;;;;;2.25;2.15;;;18.00;60.30;;;;;;5045557;28;20016;-34
2021/03/24 05:30:33;;;;;;;2.70;2.60;;;17.90;60.20;;;;;;5047913;28;20620;-37
2021/03/24 05:33:35;;;;;;;2.47;2.28;;;18.00;60.10;;;;;;5033739;28;20068;-35
2021/03/24 05:36:09;;;;;;;3.17;2.70;;;17.90;60.20;;;;;;5061331;28;20040;-34
2021/03/24 05:38:43;;;;;;;2.20;2.10;;;18.00;60.10;;;;;;5049686;28;20112;-34
2021/03/24 05:41:29;;;;;;;2.38;2.28;;;18.00;60.10;;;;;;5049818;28;20025;-34
2021/03/24 05:44:14;;;;;;;2.22;2.13;;;17.90;60.00;;;;;;5048332;28;20446;-35
2021/03/24 05:47:05;;;;;;;2.58;2.45;;;18.00;60.00;;;;;;5042678;28;20029;-38
2021/03/24 05:49:37;;;;;;;2.42;2.33;;;18.00;59.70;;;;;;5037250;28;20063;-34
2021/03/24 05:52:44;;;;;;;2.47;2.30;;;18.10;60.30;;;;;;5042683;28;20028;-33
2021/03/24 05:55:35;;;;;;;2.40;2.30;;;18.10;59.40;;;;;;5043050;28;20025;-33
2021/03/24 05:58:09;;;;;;;2.10;2.00;;;18.10;59.30;;;;;;5044888;28;20400;-32
2021/03/24 06:01:01;;;;;;;2.30;2.20;;;18.10;59.60;;;;;;5047682;28;20499;-33
2021/03/24 06:03:51;;;;;;;2.20;2.10;;;18.10;59.30;;;;;;5046204;28;20533;-34
2021/03/24 06:06:35;;;;;;;2.63;2.42;;;18.10;59.30;;;;;;5045467;28;20103;-34
2021/03/24 06:09:19;;;;;;;2.23;2.13;;;18.00;59.50;;;;;;5045816;28;20794;-34
2021/03/24 06:11:51;;;;;;;2.60;2.40;;;18.10;59.40;;;;;;5041693;28;20037;-34
2021/03/24 06:14:47;;;;;;;2.35;2.20;;;18.00;59.70;;;;;;5029941;28;20025;-34
2021/03/24 06:17:40;;;;;;;2.15;2.05;;;18.00;59.70;;;;;;5047994;28;20147;-34
2021/03/24 06:20:32;;;;;;;2.35;2.25;;;17.90;59.70;;;;;;5040697;28;20067;-33
2021/03/24 06:23:34;;;;;;;10.47;2.27;;;17.80;60.10;;;;;;4690838;28;10000117;-36
2021/03/24 06:26:18;;;;;;;2.60;2.28;;;17.80;60.20;;;;;;5040789;28;20291;-38
2021/03/24 06:29:21;;;;;;;2.15;2.05;;;17.90;60.30;;;;;;5033691;28;20057;-36
2021/03/24 06:32:09;;;;;;;2.45;2.25;;;18.10;59.90;;;;;;5036987;28;20100;-37
2021/03/24 06:34:48;;;;;;;2.67;2.50;;;18.20;59.80;;;;;;5025043;28;20119;-37
2021/03/24 06:37:51;;;;;;;2.90;2.70;;;18.10;62.00;;;;;;5024956;28;20044;-37
2021/03/24 06:40:42;;;;;;;3.03;2.83;;;18.00;62.50;;;;;;5035701;28;20060;-37
2021/03/24 06:43:26;;;;;;;3.17;2.67;;;17.90;63.00;;;;;;5045635;28;20124;-37
2021/03/24 06:46:03;;;;;;;3.70;2.85;;;17.80;62.70;;;;;;5040639;28;20033;-36
2021/03/24 06:48:31;;;;;;;4.25;2.72;;;17.90;63.70;;;;;;5047152;28;20112;-37
2021/03/24 06:51:34;;;;;;;4.32;2.65;;;17.90;63.00;;;;;;5050847;28;20064;-36
2021/03/24 06:54:05;;;;;;;3.25;2.28;;;17.90;62.50;;;;;;5046937;28;20032;-36
2021/03/24 06:57:16;;;;;;;2.58;2.38;;;18.00;62.50;;;;;;5036253;28;20028;-37
2021/03/24 07:00:11;;;;;;;2.17;2.08;;;18.10;61.80;;;;;;5006804;28;20050;-34
2021/03/24 07:03:01;;;;;;;3.50;2.20;;;18.30;61.20;;;;;;4983497;28;20456;-34
2021/03/24 07:05:41;;;;;;;2.33;2.22;;;18.30;61.50;;;;;;5000757;28;20060;-34
2021/03/24 07:08:27;;;;;;;1.90;1.80;;;18.50;60.30;;;;;;4999173;28;20092;-36
2021/03/24 07:11:22;;;;;;;2.85;2.65;;;18.50;60.10;;;;;;5003716;28;20104;-34
2021/03/24 07:14:12;;;;;;;2.88;2.67;;;18.40;60.60;;;;;;4982061;28;20041;-34
2021/03/24 07:17:04;;;;;;;2.20;2.10;;;18.10;63.10;;;;;;5003161;28;20125;-34
2021/03/24 07:19:35;;;;;;;2.50;2.40;;;17.90;64.60;;;;;;5006436;28;20486;-35
2021/03/24 07:22:38;;;;;;;3.33;2.85;;;17.90;64.60;;;;;;5010143;28;20026;-33
2021/03/24 07:25:25;;;;;;;2.40;2.20;;;17.90;65.00;;;;;;5003382;28;20423;-36
2021/03/24 07:28:01;;;;;;;2.60;2.40;;;17.80;64.40;;;;;;4994793;28;20109;-35
2021/03/24 07:30:30;;;;;;;2.42;2.33;;;17.90;64.50;;;;;;5001879;28;20555;-35
2021/03/24 07:33:04;;;;;;;2.97;2.78;;;17.90;64.70;;;;;;4995784;28;20160;-35
2021/03/24 07:35:35;;;;;;;3.50;3.20;;;17.90;64.60;;;;;;4993190;28;20029;-35
2021/03/24 07:38:38;;;;;;;3.25;2.83;;;17.90;65.00;;;;;;5042757;28;20431;-34
2021/03/24 07:41:22;;;;;;;2.88;2.60;;;17.80;64.90;;;;;;5045949;28;20028;-35
2021/03/24 07:43:56;;;;;;;3.85;3.45;;;17.80;64.80;;;;;;5049219;28;20036;-35
2021/03/24 07:46:35;;;;;;;;;;;17.80;64.90;;;;;;5047317;28;20040;-35
2021/03/24 07:49:33;;;;;;;3.13;2.92;;;17.80;64.80;;;;;;5051178;28;19919;-35
2021/03/24 07:52:11;;;;;;;2.90;2.70;;;17.80;64.90;;;;;;5044914;28;20548;-35
2021/03/24 07:54:43;;;;;;;3.17;2.97;;;17.80;64.60;;;;;;5047989;28;20115;-36
2021/03/24 07:57:35;;;;;;;3.10;2.90;;;17.80;64.80;;;;;;5049334;28;20033;-35
2021/03/24 08:00:16;;;;;;;3.00;2.55;;;17.80;64.70;;;;;;5049898;28;20037;-33
2021/03/24 08:03:07;;;;;;;2.60;2.45;;;17.80;64.50;;;;;;5047336;28;20025;-35
2021/03/24 08:05:43;;;;;;;2.70;2.50;;;17.90;64.80;;;;;;5030966;28;20039;-35
2021/03/24 08:08:23;;;;;;;3.17;2.88;;;17.90;64.70;;;;;;5046644;28;20064;-35
2021/03/24 08:11:05;;;;;;;3.22;3.03;;;17.90;64.70;;;;;;5046720;28;20055;-35
2021/03/24 08:14:06;;;;;;;7.68;2.90;;;17.90;64.60;;;;;;5034408;28;20100;-35
2021/03/24 08:16:50;;;;;;;3.80;2.80;;;18.00;64.60;;;;;;5039607;28;20056;-35
2021/03/24 08:19:34;;;;;;;2.60;2.40;;;18.00;64.10;;;;;;5035900;28;20028;-36
2021/03/24 08:22:15;;;;;;;3.03;2.78;;;18.00;64.80;;;;;;5041055;28;20101;-35
2021/03/24 08:25:01;;;;;;;3.53;2.53;;;18.00;64.00;;;;;;5033585;28;20060;-37
2021/03/24 08:27:32;;;;;;;2.78;2.58;;;18.00;64.00;;;;;;5047975;28;20027;-35
2021/03/24 08:30:13;;;;;;;2.85;2.30;;;18.00;63.80;;;;;;5052202;28;20032;-36
2021/03/24 08:33:02;;;;;;;2.83;2.63;;;18.00;63.40;;;;;;5040525;28;20025;-34
2021/03/24 08:35:31;;;;;;;2.70;2.50;;;18.10;63.30;;;;;;5043140;28;20053;-40
2021/03/24 08:38:05;;;;;;;2.88;2.63;;;18.10;63.20;;;;;;5049065;28;20017;-34
2021/03/24 08:41:04;;;;;;;2.80;2.47;;;18.10;63.00;;;;;;5047687;28;20108;-35
2021/03/24 08:43:30;;;;;;;2.90;2.70;;;18.10;62.80;;;;;;5046096;28;20037;-35
2021/03/24 08:46:18;;;;;;;2.67;2.47;;;18.20;62.50;;;;;;5047874;28;20052;-34
2021/03/24 08:49:01;;;;;;;3.15;2.95;;;18.20;62.50;;;;;;5038887;28;20411;-33
2021/03/24 08:51:56;;;;;;;3.08;2.88;;;18.20;63.20;;;;;;5041136;28;20499;-36
2021/03/24 08:54:41;;;;;;;3.20;2.28;;;18.20;63.10;;;;;;5048308;28;20066;-34
2021/03/24 08:57:22;;;;;;;2.40;2.30;;;18.20;63.50;;;;;;5046495;28;20029;-34
2021/03/24 08:59:51;;;;;;;2.10;2.00;;;18.20;64.00;;;;;;5048385;28;20048;-34
2021/03/24 09:02:26;;;;;;;2.40;2.30;;;18.20;64.60;;;;;;5016699;28;20082;-35
2021/03/24 09:05:17;;;;;;;2.25;2.10;;;18.30;64.60;;;;;;5046795;28;20041;-34
2021/03/24 09:08:07;;;;;;;1.98;1.88;;;18.30;64.40;;;;;;5049849;28;20172;-35
2021/03/24 09:10:51;;;;;;;2.88;2.70;;;18.30;64.40;;;;;;5049851;28;20021;-34
2021/03/24 09:13:22;;;;;;;2.17;2.08;;;18.30;64.00;;;;;;5044776;28;20033;-35
2021/03/24 09:15:47;;;;;;;2.47;2.38;;;18.30;63.10;;;;;;5047684;28;20068;-35
2021/03/24 09:18:34;;;;;;;2.42;2.33;;;18.30;63.10;;;;;;5045094;28;20084;-35
2021/03/24 09:21:22;;;;;;;2.20;2.10;;;18.30;62.90;;;;;;5049936;28;20116;-36
2021/03/24 09:24:35;;;;;;;2.38;2.13;;;18.40;62.30;;;;;;5049485;28;20107;-35
2021/03/24 09:27:20;;;;;;;2.35;2.00;;;18.40;62.00;;;;;;5008682;28;20508;-34
2021/03/24 09:30:08;;;;;;;2.45;2.33;;;18.40;61.80;;;;;;5007034;28;20048;-35
2021/03/24 09:32:39;;;;;;;2.00;1.90;;;18.50;62.10;;;;;;5008847;28;20108;-35
2021/03/24 09:35:08;;;;;;;2.40;2.08;;;18.50;61.90;;;;;;4972398;28;20069;-36
2021/03/24 09:37:38;;;;;;;2.33;2.10;;;18.50;61.70;;;;;;5000097;28;20038;-36
2021/03/24 09:40:07;;;;;;;4.07;2.30;;;18.60;61.80;;;;;;4975960;28;20084;-33
2021/03/24 09:42:45;;;;;;;2.00;1.90;;;18.60;61.30;;;;;;4975822;28;20525;-36
2021/03/24 09:45:15;;;;;;;2.58;2.38;;;18.70;61.10;;;;;;4989392;28;20042;-35
2021/03/24 09:47:58;;;;;;;1.85;1.75;;;18.70;61.00;;;;;;4993113;28;20061;-37
2021/03/24 09:50:32;;;;;;;2.05;1.90;;;18.70;60.90;;;;;;4987353;28;20052;-35
2021/03/24 09:53:10;;;;;;;1.92;1.80;;;18.80;60.90;;;;;;5007584;28;20061;-36
2021/03/24 09:55:40;;;;;;;2.20;2.10;;;18.80;60.70;;;;;;5006666;28;20084;-35
2021/03/24 09:58:07;;;;;;;2.15;2.05;;;18.80;60.60;;;;;;5030954;28;20499;-39
2021/03/24 10:00:35;;;;;;;2.17;1.98;;;18.80;60.50;;;;;;5043123;28;20022;-33
2021/03/24 10:03:24;;;;;;;2.13;2.03;;;18.80;60.50;;;;;;5049914;28;20017;-34
2021/03/24 10:05:56;;;;;;;1.73;1.63;;;18.90;60.40;;;;;;5008463;28;20050;-34
2021/03/24 10:08:29;;;;;;;1.67;1.58;;;18.90;60.20;;;;;;4991194;28;20148;-34
2021/03/24 10:10:58;;;;;;;2.28;2.15;;;18.90;60.90;;;;;;4990315;28;20041;-35
2021/03/24 10:13:30;;;;;;;1.92;1.75;;;18.90;60.10;;;;;;4990576;28;20176;-33
2021/03/24 10:16:35;;;;;;;1.60;1.50;;;19.00;59.90;;;;;;4979489;28;20550;-36
2021/03/24 10:19:05;;;;;;;1.98;1.55;;;19.00;60.00;;;;;;4983338;28;20405;-32
2021/03/24 10:21:55;;;;;;;2.10;2.00;;;18.90;59.90;;;;;;4974965;28;20022;-34
2021/03/24 10:24:41;;;;;;;1.65;1.55;;;18.90;60.00;;;;;;4989408;28;20492;-33
2021/03/24 10:27:08;;;;;;;1.77;1.60;;;18.90;60.30;;;;;;4992233;28;20028;-35
2021/03/24 10:29:48;;;;;;;2.00;1.90;;;18.90;59.90;;;;;;4976266;28;20046;-34
2021/03/24 10:32:25;;;;;;;1.85;1.75;;;18.90;60.10;;;;;;5007711;28;20115;-34
2021/03/24 10:34:53;;;;;;;2.00;1.90;;;18.90;60.00;;;;;;5007468;28;20451;-35
2021/03/24 10:37:41;;;;;;;4.53;1.90;;;18.90;60.20;;;;;;4990873;28;20617;-34
2021/03/24 10:40:28;;;;;;;1.70;1.60;;;18.90;60.00;;;;;;5007720;28;20030;-36
2021/03/24 10:43:05;;;;;;;1.80;1.70;;;18.90;60.20;;;;;;5002527;28;20112;-37
2021/03/24 10:45:33;;;;;;;2.55;1.73;;;18.80;60.10;;;;;;5047004;28;20029;-35
2021/03/24 10:47:59;;;;;;;2.30;1.65;;;18.80;59.90;;;;;;5033170;28;20021;-35
2021/03/24 10:50:40;;;;;;;1.73;1.63;;;18.80;60.30;;;;;;5047007;28;20033;-35
2021/03/24 10:53:23;;;;;;;3.67;1.80;;;18.80;60.10;;;;;;5052222;28;20029;-35
2021/03/24 10:56:18;;;;;;;1.67;1.57;;;18.80;60.10;;;;;;5036918;28;20060;-35
2021/03/24 10:58:48;;;;;;;1.60;1.50;;;18.80;60.30;;;;;;5045198;28;20496;-36
2021/03/24 11:01:43;;;;;;;1.60;1.50;;;18.80;60.10;;;;;;5052181;28;20056;-35
2021/03/24 11:04:14;;;;;;;1.77;1.67;;;18.80;60.40;;;;;;5010429;28;20111;-34
2021/03/24 11:07:23;;;;;;;1.75;1.65;;;18.80;59.80;;;;;;4992984;28;20112;-34
2021/03/24 11:10:17;;;;;;;3.92;1.52;;;18.90;59.50;;;;;;4992659;28;20042;-34
2021/03/24 11:12:44;;;;;;;1.55;1.40;;;18.90;59.60;;;;;;5010580;28;20030;-33
2021/03/24 11:15:52;;;;;;;1.38;1.38;;;18.90;59.60;;;;;;4981974;28;20077;-32
2021/03/24 11:18:21;;;;;;;1.92;1.83;;;18.90;59.70;;;;;;4920285;29;20514;-35
2021/03/24 11:20:57;;;;;;;1.70;1.60;;;18.80;59.70;;;;;;4932709;29;20119;-35
2021/03/24 11:23:50;;;;;;;1.42;1.42;;;18.80;59.90;;;;;;4914574;29;20051;-34
2021/03/24 11:26:25;;;;;;;1.60;1.50;;;18.80;60.20;;;;;;4915811;29;20445;-34
2021/03/24 11:28:54;;;;;;;1.73;1.63;;;18.80;59.90;;;;;;4934065;29;20040;-33
2021/03/24 11:31:56;;;;;;;1.80;1.70;;;18.70;60.20;;;;;;4915096;29;20035;-35
2021/03/24 11:34:30;;;;;;;1.30;1.20;;;18.80;60.30;;;;;;4927469;29;20142;-35
2021/03/24 11:37:01;;;;;;;1.73;1.63;;;18.80;60.00;;;;;;4928868;29;20079;-37
2021/03/24 11:39:31;;;;;;;1.88;1.60;;;18.90;59.60;;;;;;4916697;29;20051;-37
2021/03/24 11:42:14;;;;;;;1.58;1.45;;;19.00;59.60;;;;;;4981456;28;20599;-37
2021/03/24 11:44:40;;;;;;;2.63;1.27;;;19.10;59.60;;;;;;4975278;28;20038;-37
2021/03/24 11:47:45;;;;;;;1.45;1.38;;;19.10;59.90;;;;;;4998023;28;20034;-37
2021/03/24 11:50:13;;;;;;;1.60;1.42;;;19.10;59.80;;;;;;5032601;28;20574;-37
2021/03/24 11:52:47;;;;;;;1.50;1.40;;;19.10;60.00;;;;;;4687593;28;10000460;-37
2021/03/24 11:55:31;;;;;;;1.33;1.30;;;19.10;60.00;;;;;;5033588;28;20056;-37
2021/03/24 11:58:20;;;;;;;1.40;1.30;;;19.10;60.20;;;;;;5037804;28;20041;-36
2021/03/24 12:01:03;;;;;;;1.50;1.40;;;19.20;60.00;;;;;;5019917;28;20052;-36
2021/03/24 12:03:53;;;;;;;2.20;1.67;;;19.30;59.70;;;;;;5012091;28;20091;-35
2021/03/24 12:06:22;;;;;;;1.58;1.48;;;19.20;59.80;;;;;;5031396;28;20135;-36
2021/03/24 12:09:10;;;;;;;1.52;1.40;;;19.20;59.70;;;;;;5034548;28;20049;-36
2021/03/24 12:11:38;;;;;;;1.40;1.33;;;19.10;60.10;;;;;;5029434;28;20427;-36
2021/03/24 12:14:19;;;;;;;1.48;1.38;;;19.10;60.20;;;;;;5039816;28;20048;-36
2021/03/24 12:16:52;;;;;;;1.50;1.40;;;19.10;60.10;;;;;;5034474;28;20543;-38
2021/03/24 12:19:26;;;;;;;2.83;1.50;;;19.10;60.30;;;;;;5033075;28;20480;-37
2021/03/24 12:21:55;;;;;;;5.57;1.60;;;19.10;60.50;;;;;;5037686;28;20052;-34
2021/03/24 12:24:26;;;;;;;1.23;1.20;;;19.20;60.50;;;;;;5007177;28;20127;-35
2021/03/24 12:26:52;;;;;;;2.58;1.58;;;19.20;60.10;;;;;;5025268;28;20040;-37
2021/03/24 12:29:21;;;;;;;1.85;1.33;;;19.10;60.30;;;;;;5031306;28;20034;-39
2021/03/24 12:31:58;;;;;;;1.45;1.30;;;19.10;60.30;;;;;;5040789;28;20027;-39
2021/03/24 12:34:24;;;;;;;1.60;1.50;;;19.10;60.40;;;;;;5031613;28;20033;-38
2021/03/24 12:36:57;;;;;;;1.65;1.42;;;19.00;60.50;;;;;;5048615;28;20039;-38
2021/03/24 12:39:26;;;;;;;2.08;1.48;;;19.00;60.90;;;;;;5041375;28;20380;-37
2021/03/24 12:41:51;;;;;;;2.45;1.55;;;19.00;60.80;;;;;;5051142;28;20530;-38
2021/03/24 12:44:21;;;;;;;1.92;1.45;;;18.90;60.80;;;;;;5049490;28;20131;-39
2021/03/24 12:46:57;;;;;;;3.25;1.55;;;19.00;62.00;;;;;;5048011;28;20036;-38
2021/03/24 12:49:28;;;;;;;2.50;1.73;;;19.10;60.80;;;;;;5048102;28;20154;-39
2021/03/24 12:52:26;;;;;;;3.88;1.20;;;19.10;60.60;;;;;;5049775;28;20533;-37
2021/03/24 12:54:51;;;;;;;2.17;1.25;;;19.10;60.60;;;;;;5043016;28;20063;-39
2021/03/24 12:57:36;;;;;;;2.72;1.17;;;19.10;60.90;;;;;;5050237;28;20418;-38
2021/03/24 13:00:26;;;;;;;2.55;1.38;;;19.00;60.90;;;;;;5052161;28;20501;-38
2021/03/24 13:03:12;;;;;;;2.47;1.35;;;19.00;60.90;;;;;;5051466;28;20021;-37
2021/03/24 13:05:47;;;;;;;1.73;1.20;;;19.00;60.80;;;;;;5049266;28;20056;-37
2021/03/24 13:08:41;;;;;;;1.35;1.17;;;19.00;60.80;;;;;;5046785;28;20020;-36
2021/03/24 13:11:18;;;;;;;2.13;1.20;;;19.10;60.90;;;;;;5039203;28;20126;-36
2021/03/24 13:13:50;;;;;;;2.70;1.38;;;19.10;60.70;;;;;;5048131;28;20041;-36
2021/03/24 13:16:27;;;;;;;2.33;1.23;;;19.10;60.90;;;;;;5046246;28;20155;-36
2021/03/24 13:19:15;;;;;;;1.15;1.10;;;19.10;60.80;;;;;;5048570;28;20021;-36
2021/03/24 13:21:49;;;;;;;1.65;1.30;;;19.10;60.80;;;;;;5038043;28;20021;-33
2021/03/24 13:24:21;;;;;;;3.58;1.23;;;19.10;60.80;;;;;;5047450;28;20037;-35
2021/03/24 13:26:47;;;;;;;1.38;1.20;;;19.10;60.80;;;;;;5049465;28;20033;-36
2021/03/24 13:29:20;;;;;;;1.30;1.20;;;19.10;60.70;;;;;;5032242;28;20506;-34
2021/03/24 13:32:12;;;;;;;1.08;1.00;;;19.10;61.00;;;;;;5047689;28;20033;-37
2021/03/24 13:35:02;;;;;;;0.93;0.93;;;19.20;60.60;;;;;;5037550;28;20112;-35